Private Wetterstation Ehingen
Wetterdaten: aktuell Montag, 23.10.2017 11:15
Datum Zeit Temperatur ThetaE Apparent Tem Schwlewert Luftfeuchte Gewitter-dex Luftdruck Regen Wind Richtung Richtung T Regen Regenrate UV Solar Taupunkt Windchill Windben
23.10.2017 11:15 7,7 C 25,3 C 4,2 C 11,8 C 78 % 0 cb 1020,6 hPa 0,0 l/m 11,2 km/h (2 Bft) W 266 0 min 0,000 mm 0,9 UV-I 312 W/m 4,1 C 4,3 C 16,0 km/h (3 Bft)
23.10.2017 10:55 7,9 C 25,4 C 4,9 C 11,9 C 76 % 2 cb 1020,6 hPa 0,0 l/m 8,6 km/h (2 Bft) SO 131 0 min 0,000 mm 0,8 UV-I 313 W/m 3,9 C 6,2 C 12,1 km/h (2 Bft)
23.10.2017 10:50 7,9 C 25,5 C 4,9 C 11,8 C 77 % 0 cb 1020,6 hPa 0,0 l/m 8,6 km/h (2 Bft) W-SW 245 0 min 0,000 mm 1,3 UV-I 276 W/m 4,1 C 6,2 C 11,2 km/h (2 Bft)
23.10.2017 10:45 7,8 C 25,4 C 4,8 C 12,0 C 77 % 0 cb 1020,6 hPa 0,0 l/m 8,6 km/h (2 Bft) W 260 0 min 0,000 mm 0,7 UV-I 317 W/m 4,0 C 6,1 C 12,1 km/h (2 Bft)
23.10.2017 10:40 7,7 C 25,5 C 4,6 C 11,6 C 79 % 0 cb 1020,6 hPa 0,0 l/m 9,5 km/h (2 Bft) SW 225 0 min 0,000 mm 0,8 UV-I 334 W/m 4,3 C 5,4 C 10,4 km/h (2 Bft)
23.10.2017 10:35 7,5 C 25,1 C 4,4 C 11,2 C 79 % 0 cb 1020,7 hPa 0,0 l/m 9,5 km/h (2 Bft) W 275 0 min 0,000 mm 0,9 UV-I 324 W/m 4,1 C 5,2 C 13,0 km/h (3 Bft)
23.10.2017 10:30 7,4 C 24,8 C 4,4 C 11,2 C 78 % 0 cb 1019,7 hPa 0,0 l/m 8,6 km/h (2 Bft) SW 217 0 min 0,000 mm 0,7 UV-I 257 W/m 3,8 C 5,7 C 15,6 km/h (3 Bft)
23.10.2017 10:25 7,4 C 24,8 C 4,0 C 11,0 C 78 % 0 cb 1019,7 hPa 0,0 l/m 10,4 km/h (2 Bft) SO 142 0 min 0,000 mm 0,7 UV-I 255 W/m 3,8 C 4,5 C 15,6 km/h (3 Bft)
23.10.2017 10:20 7,4 C 24,6 C 3,7 C 11,2 C 77 % 0 cb 1019,7 hPa 0,0 l/m 12,1 km/h (2 Bft) S 187 0 min 0,000 mm 0,6 UV-I 303 W/m 3,6 C 3,5 C 16,0 km/h (3 Bft)
23.10.2017 10:15 7,4 C 24,8 C 4,0 C 11,4 C 78 % 0 cb 1019,7 hPa 0,0 l/m 10,4 km/h (2 Bft) SW 220 0 min 0,000 mm 0,7 UV-I 290 W/m 3,8 C 4,5 C 15,6 km/h (3 Bft)
23.10.2017 10:10 7,3 C 24,9 C 4,5 C 11,0 C 80 % 0 cb 1019,7 hPa 0,0 l/m 7,8 km/h (2 Bft) W-NW 284 0 min 0,000 mm 0,7 UV-I 344 W/m 4,1 C 6,2 C 11,2 km/h (2 Bft)
23.10.2017 10:05 7,1 C 24,5 C 4,1 C 10,0 C 80 % 0 cb 1019,7 hPa 0,0 l/m 8,6 km/h (2 Bft) W-SW 246 0 min 0,000 mm 0,6 UV-I 334 W/m 3,9 C 5,4 C 12,1 km/h (2 Bft)
23.10.2017 09:55 6,8 C 24,3 C 3,6 C 10,7 C 82 % 0 cb 1019,8 hPa 0,0 l/m 9,5 km/h (2 Bft) W 263 0 min 0,000 mm 0,4 UV-I 331 W/m 3,9 C 4,4 C 13,8 km/h (3 Bft)
23.10.2017 09:50 6,7 C 24,3 C 3,0 C 10,5 C 83 % 0 cb 1019,8 hPa 0,0 l/m 12,1 km/h (2 Bft) W-SW 254 0 min 0,000 mm 0,4 UV-I 243 W/m 4,0 C 2,7 C 16,8 km/h (3 Bft)
23.10.2017 09:45 6,5 C 24,0 C 2,8 C 10,4 C 84 % 0 cb 1019,9 hPa 0,0 l/m 12,1 km/h (2 Bft) W 263 0 min 0,000 mm 0,3 UV-I 237 W/m 4,0 C 2,4 C 21,2 km/h (4 Bft)
23.10.2017 09:40 6,3 C 24,0 C 2,7 C 10,2 C 86 % 0 cb 1019,9 hPa 0,0 l/m 12,1 km/h (2 Bft) SW 216 0 min 0,000 mm 0,3 UV-I 224 W/m 4,1 C 2,2 C 16,8 km/h (3 Bft)
23.10.2017 09:35 6,0 C 23,6 C 2,4 C 9,9 C 88 % 0 cb 1020,0 hPa 0,0 l/m 12,1 km/h (2 Bft) W 264 0 min 0,000 mm 0,3 UV-I 220 W/m 4,2 C 1,8 C 12,1 km/h (2 Bft)
23.10.2017 09:30 5,8 C 23,4 C 2,2 C 9,9 C 89 % 0 cb 1020,0 hPa 0,0 l/m 12,1 km/h (2 Bft) W-SW 252 0 min 0,000 mm 0,2 UV-I 169 W/m 4,1 C 1,6 C 16,8 km/h (3 Bft)
23.10.2017 09:25 5,7 C 23,4 C 2,1 C 9,5 C 90 % 0 cb 1020,0 hPa 0,0 l/m 12,1 km/h (2 Bft) W-SW 253 0 min 0,000 mm 0,2 UV-I 159 W/m 4,2 C 1,5 C 15,6 km/h (3 Bft)
23.10.2017 09:20 5,5 C 23,0 C 2,2 C 9,7 C 90 % 0 cb 1020,1 hPa 0,0 l/m 10,4 km/h (2 Bft) NW 305 0 min 0,000 mm 0,2 UV-I 148 W/m 4,0 C 2,4 C 13,0 km/h (3 Bft)
23.10.2017 09:15 5,5 C 23,1 C 2,4 C 9,7 C 91 % 0 cb 1020,1 hPa 0,0 l/m 9,5 km/h (2 Bft) SW 214 0 min 0,000 mm 0,2 UV-I 131 W/m 4,2 C 3,0 C 13,0 km/h (3 Bft)
23.10.2017 09:10 5,5 C 23,1 C 2,2 C 9,7 C 91 % 0 cb 1020,1 hPa 0,0 l/m 10,4 km/h (2 Bft) W-SW 256 0 min 0,000 mm 0,1 UV-I 117 W/m 4,2 C 2,4 C 13,8 km/h (3 Bft)
23.10.2017 09:05 5,5 C 23,1 C 2,2 C 10,0 C 91 % 0 cb 1020,1 hPa 0,0 l/m 10,4 km/h (2 Bft) W 264 0 min 0,000 mm 0,1 UV-I 104 W/m 4,2 C 2,4 C 14,7 km/h (3 Bft)
23.10.2017 09:00 5,6 C 23,5 C 2,3 C 9,8 C 92 % 0 cb 1020,1 hPa 0,0 l/m 10,4 km/h (2 Bft) W-SW 241 0 min 0,000 mm 0,1 UV-I 90 W/m 4,4 C 2,5 C 13,0 km/h (3 Bft)
23.10.2017 08:55 5,5 C 23,3 C 2,2 C 10,0 C 92 % 0 cb 1020,1 hPa 0,0 l/m 10,4 km/h (2 Bft) W-SW 251 0 min 0,000 mm 0,0 UV-I 76 W/m 4,3 C 2,4 C 16,0 km/h (3 Bft)
23.10.2017 08:50 5,5 C 23,4 C 2,4 C 9,8 C 93 % 0 cb 1020,1 hPa 0,0 l/m 9,5 km/h (2 Bft) W-SW 258 0 min 0,000 mm 0,0 UV-I 64 W/m 4,5 C 3,0 C 11,2 km/h (2 Bft)
23.10.2017 08:45 5,4 C 23,3 C 2,6 C 9,8 C 93 % 0 cb 1020,1 hPa 0,0 l/m 7,8 km/h (2 Bft) W-SW 254 0 min 0,000 mm 0,0 UV-I 55 W/m 4,4 C 4,2 C 7,8 km/h (2 Bft)
23.10.2017 08:40 5,4 C 23,3 C 2,5 C 9,6 C 93 % 0 cb 1020,1 hPa 0,0 l/m 8,6 km/h (2 Bft) SW 220 0 min 0,000 mm 0,0 UV-I 50 W/m 4,4 C 3,5 C 12,1 km/h (2 Bft)
23.10.2017 08:35 5,4 C 23,1 C 2,3 C 9,6 C 92 % 0 cb 1020,1 hPa 0,0 l/m 9,5 km/h (2 Bft) W-SW 249 0 min 0,000 mm 0,0 UV-I 43 W/m 4,2 C 2,9 C 12,1 km/h (2 Bft)
23.10.2017 08:30 5,4 C 23,1 C 2,3 C 9,6 C 92 % 0 cb 1020,1 hPa 0,0 l/m 9,5 km/h (2 Bft) W 265 0 min 0,000 mm 0,0 UV-I 37 W/m 4,2 C 2,9 C 12,1 km/h (2 Bft)
23.10.2017 08:25 5,4 C 23,1 C 3,0 C 9,6 C 92 % 0 cb 1020,1 hPa 0,0 l/m 6,0 km/h (2 Bft) W-SW 254 0 min 0,000 mm 0,0 UV-I 32 W/m 4,2 C 5,4 C 7,8 km/h (2 Bft)
23.10.2017 08:20 5,4 C 23,1 C 3,0 C 9,6 C 92 % 0 cb 1020,1 hPa 0,0 l/m 6,0 km/h (2 Bft) W-SW 253 0 min 0,000 mm 0,0 UV-I 26 W/m 4,2 C 5,4 C 12,1 km/h (2 Bft)
23.10.2017 08:15 5,4 C 23,1 C 2,4 C 9,6 C 92 % 0 cb 1020,1 hPa 0,0 l/m 8,6 km/h (2 Bft) W 260 0 min 0,000 mm 0,0 UV-I 20 W/m 4,2 C 3,5 C 12,1 km/h (2 Bft)
23.10.2017 08:10 5,4 C 23,1 C 3,0 C 9,8 C 92 % 0 cb 1020,1 hPa 0,0 l/m 6,0 km/h (2 Bft) W 259 0 min 0,000 mm 0,0 UV-I 14 W/m 4,2 C 5,4 C 9,5 km/h (2 Bft)
23.10.2017 08:05 5,4 C 23,3 C 2,8 C 9,6 C 93 % 0 cb 1020,1 hPa 0,0 l/m 6,9 km/h (2 Bft) W 259 0 min 0,000 mm 0,0 UV-I 8 W/m 4,4 C 5,0 C 10,4 km/h (2 Bft)
23.10.2017 08:00 5,4 C 23,1 C 2,8 C 9,6 C 92 % 0 cb 1020,1 hPa 0,0 l/m 6,9 km/h (2 Bft) W 262 0 min 0,000 mm 0,0 UV-I 0 W/m 4,2 C 5,0 C 12,1 km/h (2 Bft)
23.10.2017 07:55 5,4 C 23,1 C 2,3 C 9,6 C 92 % 0 cb 1020,1 hPa 0,0 l/m 9,5 km/h (2 Bft) W 262 0 min 0,000 mm 0,0 UV-I 0 W/m 4,2 C 2,9 C 12,1 km/h (2 Bft)
23.10.2017 07:50 5,4 C 23,1 C 2,1 C 9,6 C 92 % 0 cb 1020,1 hPa 0,0 l/m 10,4 km/h (2 Bft) W-SW 253 0 min 0,000 mm 0,0 UV-I 0 W/m 4,2 C 2,2 C 16,0 km/h (3 Bft)
23.10.2017 07:45 5,4 C 23,1 C 2,4 C 9,5 C 92 % 0 cb 1020,1 hPa 0,0 l/m 8,6 km/h (2 Bft) W-SW 255 0 min 0,000 mm 0,0 UV-I 0 W/m 4,2 C 3,5 C 12,1 km/h (2 Bft)
23.10.2017 07:40 5,4 C 23,0 C 2,7 C 9,5 C 91 % 0 cb 1020,1 hPa 0,0 l/m 6,9 km/h (2 Bft) W 259 0 min 0,000 mm 0,0 UV-I 0 W/m 4,1 C 5,0 C 11,2 km/h (2 Bft)
23.10.2017 07:35 5,4 C 23,0 C 1,9 C 10,0 C 91 % 0 cb 1020,1 hPa 0,0 l/m 11,2 km/h (2 Bft) W-SW 255 0 min 0,000 mm 0,0 UV-I 0 W/m 4,1 C 1,7 C 14,7 km/h (3 Bft)
_ Min-Zeit 05:10 09:20 07:35 09:25 10:55 11:15 00:30 - 05:05 - - - - - - 10:20 09:25 04:05
Minimum _ 5,3 C 23,0 C 1,9 C 9,5 C 76 % 0 cb 1019,0 hPa - 0,0 km/h (0 Bft) - - - - - - 3,6 C 1,5 C 5,3 km/h (1 Bft)
_ Max-Zeit 10:55 10:50 10:55 10:45 03:25 10:55 10:35 11:15 00:15 - - 11:15 11:15 10:50 10:10 03:05 10:55 09:45
Maximum _ 7,9 C 25,5 C 4,9 C 12,0 C 94 % 2 cb 1020,7 hPa 0,0 l/m 12,3 km/h
W-SW (2 Bft)
- - 0 min 0,000 mm 1,3 UV-I 344 W/m 4,8 C 6,2 C 21,2 km/h
W (4 Bft)
Durchschnitt _ 5,8 C 23,7 C 3,1 C 10,2 C 90 % 0 cb 1019,6 hPa #0,0 l/m 7,8 km/h (2 Bft) W-SW - #0 min. #0,000 mm 0,6 UV-I 55 W/m 4,4 C 4,4 C 11,2 km/h (2 Bft)